Jack Mc Namara Field Airport
KCEC : now visible

Airfield :











YOU CAN JOIN US ON...

 
LOGIN :

Register | Disclaimer

   EN    FR    IT 

 









Legend :    VFR   Marginal VFR   IFR   Intensive IFR   Very Intensive IFR
Visi :
Ceiling :
>= 8 km
>= 3000ft
5 to 8 km
1000 to 3000 ft
1500m to 5 km
500 to 1000 ft
800 to 1500m
200 to 500 ft
< 800m
< 200 ft
Symbols :   Thunderstorms  Fog  Heavy snow  Heavy precipitations  Wind > 20 kt






- Airport Elevation : 61 ft
- IATA code : CEC


KCEC - Jack Mc Namara Field

CURRENT METAR :
  • 172056Z AUTO 33016G23KT 10SM CLR 11/06 A3026 RMK AO2 SLP247 T01110056 58021

EXPIRED METARs :
  • 171956Z AUTO 33014KT 10SM CLR 11/05 A3029 RMK AO2 SLP259 T01060050
  • 171856Z AUTO 34013KT 10SM CLR 10/04 A3031 RMK AO2 SLP263 T01000039

TAF KCEC
Valid from the 17 at 18:00 until the 18 at 18:00 UTC


171737Z 1718/1818 03005KT P6SM SKC
FM172100 34013G19KT P6SM SKC
FM180300 36010KT P6SM SKC
FM180700 03006KT P6SM SKC



MET'MAP, your aeronautical weather chart ! - Copyright ORBIFLY December 2007 - Disclaimer

ORBIFLY MET'MAP TEAM :

Programming & Development : Alexandra Zaïnal
Concept & original design : Baudouin d'Aumeries
Assistance for programming : Marc-Olivier Méhu
Technical & hardware support : Manuel Goepfert

Contact : metmap@orbifly.com




SOURCES & CREDITS :

   NOAA       Earth
Advisory